Time;durP1;ratioP1;P1;durP2;ratioP2;P2;SDS_P1;SDS_P2;PMS_P1;PMS_P2;Temp;Humidity;BMP_temperature;BMP_pressure;BME280_temperature;BME280_humidity;BME280_pressure;Samples;Min_cycle;Max_cycle;Signal;HPM_P1;HPM_P2
2023/09/03 00:00:56;;;;;;;17.50;10.15;;;12.70;96.20;;;;;;5063102;28;20032;-73
2023/09/03 00:03:21;;;;;;;17.63;10.77;;;12.70;96.10;;;;;;5064725;28;20044;-72
2023/09/03 00:05:53;;;;;;;15.02;10.80;;;12.60;96.20;;;;;;5067459;28;20550;-73
2023/09/03 00:08:21;;;;;;;17.73;11.20;;;12.60;96.50;;;;;;5065334;28;20123;-72
2023/09/03 00:10:50;;;;;;;20.38;11.38;;;12.60;96.30;;;;;;5064873;28;20029;-72
2023/09/03 00:13:16;;;;;;;17.67;11.40;;;12.60;96.40;;;;;;5060213;28;20078;-73
2023/09/03 00:15:41;;;;;;;18.65;12.13;;;12.50;96.70;;;;;;5064880;28;20022;-73
2023/09/03 00:18:08;;;;;;;18.58;12.48;;;12.60;97.20;;;;;;5065534;28;20582;-72
2023/09/03 00:20:34;;;;;;;19.92;13.30;;;12.60;97.50;;;;;;5060296;28;20021;-72
2023/09/03 00:22:59;;;;;;;22.48;14.05;;;12.70;97.60;;;;;;5063526;28;20051;-72
2023/09/03 00:25:24;;;;;;;22.02;14.20;;;12.70;97.50;;;;;;5063077;28;20053;-72
2023/09/03 00:27:50;;;;;;;23.23;15.95;;;12.70;97.60;;;;;;5068452;28;20068;-72
2023/09/03 00:30:16;;;;;;;21.77;14.07;;;12.70;97.60;;;;;;5065822;28;20028;-72
2023/09/03 00:32:41;;;;;;;23.92;14.77;;;12.60;97.60;;;;;;5065224;28;20191;-71
2023/09/03 00:35:07;;;;;;;22.90;14.55;;;12.60;97.50;;;;;;5069421;28;20078;-72
2023/09/03 00:37:32;;;;;;;24.23;13.85;;;12.60;97.40;;;;;;5071087;28;20056;-72
2023/09/03 00:39:58;;;;;;;21.95;13.20;;;12.40;97.10;;;;;;5069757;28;20420;-72
2023/09/03 00:42:23;;;;;;;19.80;14.20;;;12.30;97.00;;;;;;5069096;28;20036;-72
2023/09/03 00:44:49;;;;;;;22.15;14.20;;;12.30;97.30;;;;;;5069853;28;20037;-72
2023/09/03 00:47:17;;;;;;;22.60;13.82;;;12.30;97.30;;;;;;5067401;28;20067;-72
2023/09/03 00:49:43;;;;;;;22.80;14.93;;;12.20;97.20;;;;;;5066968;28;20447;-72
2023/09/03 00:52:10;;;;;;;21.35;14.18;;;12.30;97.30;;;;;;5070589;28;20028;-73
2023/09/03 00:54:36;;;;;;;22.45;15.43;;;12.30;97.40;;;;;;5070185;28;20346;-73
2023/09/03 00:57:02;;;;;;;23.48;16.02;;;12.20;97.40;;;;;;5069394;28;20037;-72
2023/09/03 00:59:29;;;;;;;22.35;15.40;;;12.20;97.50;;;;;;5069331;28;20041;-72
2023/09/03 01:01:55;;;;;;;24.02;15.38;;;12.20;97.60;;;;;;5067140;28;20025;-72
2023/09/03 01:04:20;;;;;;;24.23;15.70;;;12.20;97.80;;;;;;5068969;28;20036;-73
2023/09/03 01:06:48;;;;;;;27.63;16.77;;;12.20;98.00;;;;;;5067868;28;20063;-73
2023/09/03 01:09:15;;;;;;;25.92;16.92;;;12.20;98.00;;;;;;5071127;28;20028;-72
2023/09/03 01:11:56;;;;;;;28.25;16.88;;;12.20;98.00;;;;;;5067566;28;20031;-72
2023/09/03 01:14:39;;;;;;;23.15;16.17;;;12.20;98.10;;;;;;5067464;28;20028;-72
2023/09/03 01:17:14;;;;;;;26.25;16.42;;;12.20;98.00;;;;;;5067463;28;20028;-72
2023/09/03 01:20:05;;;;;;;25.27;17.52;;;12.10;98.10;;;;;;5068120;28;20032;-72
2023/09/03 01:23:02;;;;;;;26.25;17.35;;;12.20;98.10;;;;;;5070414;28;20025;-73
2023/09/03 01:25:45;;;;;;;27.85;16.70;;;12.10;98.20;;;;;;5068993;28;20052;-72
2023/09/03 01:28:30;;;;;;;26.33;17.35;;;12.10;98.20;;;;;;5068338;28;20090;-72
2023/09/03 01:30:58;;;;;;;26.92;17.27;;;12.10;98.30;;;;;;5068723;28;20476;-74
2023/09/03 01:33:26;;;;;;;27.98;16.88;;;12.20;98.20;;;;;;5060726;28;20504;-72
2023/09/03 01:35:54;;;;;;;25.95;15.57;;;12.10;98.00;;;;;;5064485;28;20021;-72
2023/09/03 01:38:21;;;;;;;31.30;18.42;;;12.20;98.00;;;;;;5070934;28;20379;-72
2023/09/03 01:40:55;;;;;;;25.08;16.67;;;12.10;98.10;;;;;;5065571;28;20424;-72
2023/09/03 01:43:24;;;;;;;23.70;15.20;;;12.10;97.90;;;;;;5064568;28;20032;-72
2023/09/03 01:46:15;;;;;;;24.98;16.10;;;12.10;98.00;;;;;;5068669;28;20043;-72
2023/09/03 01:49:02;;;;;;;25.92;15.18;;;12.10;98.10;;;;;;5059754;28;20029;-72
2023/09/03 01:51:42;;;;;;;24.55;15.40;;;12.10;98.00;;;;;;5065854;28;20402;-73
2023/09/03 01:54:48;;;;;;;30.42;16.00;;;12.00;97.90;;;;;;5070772;28;20471;-72
2023/09/03 01:57:27;;;;;;;22.88;15.00;;;12.00;97.80;;;;;;5033630;28;20029;-72
2023/09/03 01:59:56;;;;;;;27.65;16.45;;;12.00;97.90;;;;;;5063409;28;20036;-72
2023/09/03 02:02:23;;;;;;;22.65;14.93;;;11.90;97.70;;;;;;5066498;28;20025;-72
2023/09/03 02:04:48;;;;;;;24.05;15.07;;;11.90;97.80;;;;;;5067651;28;21184;-72
2023/09/03 02:07:14;;;;;;;23.08;14.48;;;11.90;97.70;;;;;;5070711;28;20107;-73
2023/09/03 02:09:39;;;;;;;24.30;15.85;;;11.90;97.80;;;;;;5068488;28;20029;-72
2023/09/03 02:12:06;;;;;;;25.15;16.50;;;11.80;98.00;;;;;;5070347;28;20033;-71
2023/09/03 02:14:31;;;;;;;24.05;15.50;;;11.80;98.00;;;;;;5070132;28;20491;-72
2023/09/03 02:16:57;;;;;;;27.42;15.18;;;11.70;98.20;;;;;;5066675;28;20021;-72
2023/09/03 02:19:23;;;;;;;20.55;14.35;;;11.70;98.20;;;;;;5060774;28;20087;-71
2023/09/03 02:21:49;;;;;;;22.38;13.50;;;11.70;98.30;;;;;;5071226;28;20037;-72
2023/09/03 02:24:14;;;;;;;22.20;14.13;;;11.60;98.30;;;;;;5070261;28;20392;-72
2023/09/03 02:26:41;;;;;;;26.92;14.27;;;11.60;98.40;;;;;;5069619;28;20037;-72
2023/09/03 02:29:07;;;;;;;24.77;14.45;;;11.60;98.40;;;;;;5065690;28;20028;-72
2023/09/03 02:31:32;;;;;;;24.77;14.50;;;11.60;98.40;;;;;;5064792;28;20033;-71
2023/09/03 02:33:58;;;;;;;23.20;14.23;;;11.50;98.30;;;;;;5063395;28;20037;-72
2023/09/03 02:36:23;;;;;;;23.20;14.25;;;11.50;98.40;;;;;;5068300;28;20444;-71
2023/09/03 02:39:00;;;;;;;25.80;13.82;;;11.50;98.40;;;;;;5070337;28;20032;-72
2023/09/03 02:41:26;;;;;;;25.05;14.05;;;11.50;98.50;;;;;;5066712;28;20036;-71
2023/09/03 02:43:52;;;;;;;24.17;14.70;;;11.50;98.60;;;;;;5068115;28;20247;-72
2023/09/03 02:46:17;;;;;;;23.33;14.65;;;11.50;98.60;;;;;;5066643;28;20497;-72
2023/09/03 02:48:42;;;;;;;23.73;15.00;;;11.50;98.60;;;;;;5068696;28;20040;-73
2023/09/03 02:51:08;;;;;;;22.80;14.25;;;11.50;98.50;;;;;;5067268;28;20071;-72
2023/09/03 02:53:33;;;;;;;25.02;14.50;;;11.50;98.50;;;;;;5067711;28;20033;-72
2023/09/03 02:55:59;;;;;;;24.15;13.93;;;11.50;98.50;;;;;;5070029;28;20081;-72
2023/09/03 02:58:25;;;;;;;24.95;14.52;;;11.50;98.30;;;;;;5068699;28;20036;-72
2023/09/03 03:00:50;;;;;;;24.05;14.40;;;11.50;98.30;;;;;;5066614;28;20051;-72
2023/09/03 03:03:16;;;;;;;23.05;14.35;;;11.50;98.40;;;;;;5067392;28;20085;-72
2023/09/03 03:05:41;;;;;;;22.40;13.50;;;11.60;98.50;;;;;;5067740;28;20213;-72
2023/09/03 03:08:08;;;;;;;27.08;14.90;;;11.60;98.50;;;;;;5070285;28;20178;-72
2023/09/03 03:10:33;;;;;;;23.52;13.80;;;11.50;98.40;;;;;;5069938;28;20104;-71
2023/09/03 03:12:59;;;;;;;23.55;14.45;;;11.50;98.20;;;;;;5069383;28;20112;-72
2023/09/03 03:15:24;;;;;;;21.75;14.00;;;11.50;98.20;;;;;;5067283;28;20032;-72
2023/09/03 03:17:50;;;;;;;20.88;13.45;;;11.50;98.10;;;;;;5059626;28;20028;-72
2023/09/03 03:20:15;;;;;;;21.40;13.48;;;11.50;98.10;;;;;;5062380;28;20032;-72
2023/09/03 03:22:41;;;;;;;23.73;14.20;;;11.50;98.30;;;;;;5067512;28;20027;-72
2023/09/03 03:25:07;;;;;;;20.30;13.40;;;11.50;98.20;;;;;;5065377;28;20524;-72
2023/09/03 03:27:32;;;;;;;21.80;13.63;;;11.50;98.30;;;;;;5066877;28;20048;-72
2023/09/03 03:29:59;;;;;;;26.42;13.57;;;11.50;98.30;;;;;;5066102;28;20404;-72
2023/09/03 03:32:24;;;;;;;22.85;14.18;;;11.50;98.40;;;;;;5064496;28;20032;-72
2023/09/03 03:34:50;;;;;;;21.30;14.02;;;11.40;98.40;;;;;;5066462;28;20387;-72
2023/09/03 03:37:15;;;;;;;25.40;14.07;;;11.40;98.40;;;;;;5061993;28;20323;-72
2023/09/03 03:39:40;;;;;;;28.08;14.82;;;11.40;98.50;;;;;;5067688;28;20036;-72
2023/09/03 03:42:06;;;;;;;25.40;14.52;;;11.40;98.50;;;;;;5060696;28;20061;-71
2023/09/03 03:44:31;;;;;;;22.38;13.55;;;11.30;98.40;;;;;;5069899;28;20040;-72
2023/09/03 03:46:57;;;;;;;24.85;14.57;;;11.20;98.30;;;;;;5064596;28;20400;-72
2023/09/03 03:49:22;;;;;;;22.88;14.07;;;11.20;98.40;;;;;;5061923;28;20032;-73
2023/09/03 03:51:48;;;;;;;22.65;14.27;;;11.10;98.40;;;;;;5065120;28;20452;-72
2023/09/03 03:54:14;;;;;;;22.38;14.13;;;11.10;98.40;;;;;;5065208;28;20025;-72
2023/09/03 03:56:39;;;;;;;22.60;13.77;;;11.10;98.40;;;;;;5066443;28;20839;-72
2023/09/03 03:59:05;;;;;;;24.52;13.90;;;11.00;98.20;;;;;;5060926;28;20101;-71
2023/09/03 04:01:30;;;;;;;24.95;15.52;;;11.00;98.30;;;;;;5060450;28;20031;-72
2023/09/03 04:03:57;;;;;;;27.13;14.90;;;11.00;98.20;;;;;;5058019;28;20392;-72
2023/09/03 04:06:23;;;;;;;24.50;15.18;;;11.00;98.10;;;;;;5064199;28;20389;-72
2023/09/03 04:08:48;;;;;;;27.42;14.95;;;11.10;98.50;;;;;;5061354;28;20047;-72
2023/09/03 04:11:16;;;;;;;29.38;15.95;;;11.10;98.60;;;;;;5062790;28;20029;-71
2023/09/03 04:13:42;;;;;;;24.23;14.60;;;11.10;98.70;;;;;;5063848;28;20017;-73
2023/09/03 04:16:16;;;;;;;30.23;16.48;;;11.10;98.70;;;;;;5063764;28;20059;-73
2023/09/03 04:18:43;;;;;;;26.77;15.65;;;11.10;98.70;;;;;;5059538;28;20028;-73
2023/09/03 04:21:09;;;;;;;27.05;16.23;;;11.10;98.80;;;;;;5067042;28;20389;-72
2023/09/03 04:23:35;;;;;;;29.75;16.45;;;11.10;98.80;;;;;;5067848;28;20031;-72
2023/09/03 04:26:00;;;;;;;28.00;16.00;;;11.10;98.80;;;;;;5063089;28;20392;-73
2023/09/03 04:28:26;;;;;;;22.63;14.40;;;11.00;98.80;;;;;;5068060;28;20033;-67
2023/09/03 04:30:54;;;;;;;25.25;15.35;;;11.00;98.80;;;;;;5060893;28;20389;-67
2023/09/03 04:33:20;;;;;;;26.52;15.98;;;11.10;98.80;;;;;;5064244;28;20058;-67
2023/09/03 04:35:45;;;;;;;28.40;16.27;;;11.10;98.80;;;;;;5059632;28;20552;-67
2023/09/03 04:38:11;;;;;;;29.08;16.67;;;11.10;98.80;;;;;;5069306;28;20063;-67
2023/09/03 04:40:37;;;;;;;28.23;15.88;;;11.10;98.80;;;;;;5065859;28;20044;-68
2023/09/03 04:43:04;;;;;;;31.20;15.93;;;11.10;98.90;;;;;;5063612;28;20040;-67
2023/09/03 04:45:30;;;;;;;26.42;15.93;;;11.20;98.90;;;;;;5066371;28;20626;-67
2023/09/03 04:47:56;;;;;;;26.65;15.40;;;11.20;98.70;;;;;;5062362;28;20122;-67
2023/09/03 04:50:22;;;;;;;32.05;16.02;;;11.20;98.70;;;;;;5063228;28;20541;-67
2023/09/03 04:52:48;;;;;;;33.95;16.63;;;11.20;98.70;;;;;;5060899;28;20472;-67
2023/09/03 04:55:15;;;;;;;28.13;16.65;;;11.20;98.60;;;;;;5069920;28;20119;-67
2023/09/03 04:57:40;;;;;;;27.85;16.17;;;11.20;98.50;;;;;;5063109;28;20067;-67
2023/09/03 05:00:07;;;;;;;30.08;17.02;;;11.20;98.60;;;;;;5066456;28;20080;-68
2023/09/03 05:02:33;;;;;;;29.17;15.45;;;11.30;98.60;;;;;;5060299;28;20055;-67
2023/09/03 05:04:59;;;;;;;24.27;16.05;;;11.20;98.30;;;;;;5062328;28;20052;-67
2023/09/03 05:07:24;;;;;;;22.48;14.88;;;11.20;98.20;;;;;;5060312;28;20060;-67
2023/09/03 05:09:54;;;;;;;29.73;15.70;;;11.20;98.10;;;;;;5059472;28;20032;-67
2023/09/03 05:12:19;;;;;;;26.30;16.30;;;11.30;97.90;;;;;;5065411;28;20033;-67
2023/09/03 05:14:45;;;;;;;26.63;16.25;;;11.30;98.10;;;;;;5067097;28;20131;-67
2023/09/03 05:17:11;;;;;;;27.98;15.80;;;11.40;98.10;;;;;;5068063;28;20445;-67
2023/09/03 05:19:37;;;;;;;24.38;15.95;;;11.40;98.00;;;;;;5068051;28;20052;-67
2023/09/03 05:22:02;;;;;;;26.33;14.38;;;11.40;98.10;;;;;;5071350;28;20064;-68
2023/09/03 05:24:28;;;;;;;21.80;14.32;;;11.50;98.10;;;;;;5064888;28;20417;-67
2023/09/03 05:26:53;;;;;;;25.88;15.35;;;11.50;98.10;;;;;;5070383;28;20032;-67
2023/09/03 05:29:19;;;;;;;24.65;15.38;;;11.50;98.10;;;;;;5066461;28;20078;-68
2023/09/03 05:31:44;;;;;;;21.20;15.15;;;11.60;98.00;;;;;;5065009;28;20025;-68
2023/09/03 05:34:10;;;;;;;25.40;14.07;;;11.60;98.10;;;;;;5068665;28;20082;-67
2023/09/03 05:36:35;;;;;;;24.20;14.05;;;11.60;98.10;;;;;;5066765;28;20030;-68
2023/09/03 05:39:01;;;;;;;24.02;15.88;;;11.60;98.10;;;;;;5072574;28;20078;-68
2023/09/03 05:41:27;;;;;;;23.83;14.82;;;11.70;98.20;;;;;;5066303;28;20078;-68
2023/09/03 05:43:53;;;;;;;24.80;14.85;;;11.70;98.20;;;;;;5069697;28;20075;-67
2023/09/03 05:46:19;;;;;;;26.45;15.80;;;11.80;98.30;;;;;;5064416;28;20024;-68
2023/09/03 05:48:49;;;;;;;24.00;15.63;;;11.80;98.30;;;;;;5066925;28;20020;-68
2023/09/03 05:51:15;;;;;;;26.53;15.83;;;11.80;98.20;;;;;;5066252;28;20020;-67
2023/09/03 05:53:40;;;;;;;22.35;15.57;;;11.90;98.20;;;;;;5071064;28;20024;-67
2023/09/03 05:56:07;;;;;;;29.85;15.13;;;12.00;98.40;;;;;;5069681;28;20040;-68
2023/09/03 05:58:33;;;;;;;23.05;14.85;;;12.00;98.40;;;;;;5063581;28;20103;-68
2023/09/03 06:01:02;;;;;;;23.63;15.70;;;12.00;98.50;;;;;;5065820;28;20103;-68
2023/09/03 06:03:28;;;;;;;22.20;14.90;;;12.00;98.60;;;;;;5064324;28;20037;-68
2023/09/03 06:05:53;;;;;;;24.48;15.98;;;12.10;98.60;;;;;;5066427;28;20037;-67
2023/09/03 06:08:18;;;;;;;28.92;16.25;;;12.10;98.70;;;;;;5066744;28;20064;-67
2023/09/03 06:10:44;;;;;;;23.10;15.38;;;12.10;98.60;;;;;;5071505;28;20025;-67
2023/09/03 06:13:09;;;;;;;25.25;15.55;;;12.20;98.70;;;;;;5064541;28;20028;-68
2023/09/03 06:15:35;;;;;;;23.77;15.85;;;12.20;98.60;;;;;;5068880;28;20415;-68
2023/09/03 06:18:00;;;;;;;22.70;15.07;;;12.20;98.50;;;;;;5063914;28;20033;-68
2023/09/03 06:20:26;;;;;;;27.48;15.82;;;12.30;98.50;;;;;;5066525;28;20028;-68
2023/09/03 06:22:51;;;;;;;22.63;15.13;;;12.40;98.50;;;;;;5070473;28;20048;-67
2023/09/03 06:25:18;;;;;;;27.67;15.80;;;12.50;98.50;;;;;;5066581;28;20093;-68
2023/09/03 06:27:43;;;;;;;24.48;15.75;;;12.50;98.40;;;;;;5067447;28;20103;-68
2023/09/03 06:30:09;;;;;;;23.48;14.73;;;12.60;98.40;;;;;;5062863;28;20108;-68
2023/09/03 06:32:36;;;;;;;21.38;14.75;;;12.60;98.20;;;;;;5073533;28;20016;-68
2023/09/03 06:35:03;;;;;;;18.40;12.98;;;12.70;98.20;;;;;;5065230;28;20094;-68
2023/09/03 06:37:28;;;;;;;22.10;13.38;;;12.70;98.10;;;;;;5068235;28;20560;-68
2023/09/03 06:39:54;;;;;;;21.65;14.38;;;12.80;98.10;;;;;;5067951;28;20383;-68
2023/09/03 06:42:19;;;;;;;22.08;14.05;;;13.00;98.00;;;;;;5067261;28;20064;-67
2023/09/03 06:44:45;;;;;;;20.08;13.07;;;13.10;97.90;;;;;;5068366;28;20024;-67
2023/09/03 06:47:10;;;;;;;19.05;12.85;;;13.10;97.60;;;;;;5064870;28;20676;-67
2023/09/03 06:49:35;;;;;;;20.10;12.15;;;13.30;97.50;;;;;;5064121;28;20043;-68
2023/09/03 06:52:01;;;;;;;18.42;11.63;;;13.30;97.30;;;;;;5061512;28;20041;-68
2023/09/03 06:54:27;;;;;;;17.52;11.15;;;13.50;97.10;;;;;;5068395;28;20103;-69
2023/09/03 06:56:53;;;;;;;15.63;10.43;;;13.60;96.90;;;;;;5062378;28;20492;-68
2023/09/03 06:59:23;;;;;;;14.95;10.45;;;13.70;96.70;;;;;;5060301;28;20043;-67
2023/09/03 07:01:51;;;;;;;16.35;11.25;;;13.70;96.50;;;;;;5057034;28;20021;-68
2023/09/03 07:04:17;;;;;;;14.95;10.18;;;13.70;96.40;;;;;;5067355;28;20040;-68
2023/09/03 07:06:42;;;;;;;15.15;10.55;;;13.80;96.50;;;;;;5058381;28;20032;-67
2023/09/03 07:09:10;;;;;;;14.55;10.07;;;13.80;96.40;;;;;;5064143;28;20469;-67
2023/09/03 07:11:36;;;;;;;13.38;9.10;;;13.90;96.40;;;;;;5069224;28;20028;-69
2023/09/03 07:14:01;;;;;;;13.57;9.82;;;14.00;96.40;;;;;;5060301;28;20106;-68
2023/09/03 07:16:27;;;;;;;14.88;9.93;;;14.10;96.30;;;;;;5066888;28;20132;-68
2023/09/03 07:18:52;;;;;;;12.80;9.73;;;14.30;96.40;;;;;;5062572;28;20107;-68
2023/09/03 07:21:19;;;;;;;12.40;9.40;;;14.50;96.20;;;;;;5067944;28;20086;-68
2023/09/03 07:23:45;;;;;;;11.95;8.48;;;14.60;95.70;;;;;;5061495;28;20434;-68
2023/09/03 07:26:10;;;;;;;11.18;8.57;;;14.70;95.30;;;;;;5066483;28;20083;-68
2023/09/03 07:28:37;;;;;;;11.07;7.70;;;14.80;94.80;;;;;;5063904;28;20033;-68
2023/09/03 07:31:02;;;;;;;11.48;7.78;;;14.90;94.90;;;;;;5064012;28;20020;-68
2023/09/03 07:33:28;;;;;;;11.95;8.07;;;15.00;94.70;;;;;;5059767;28;20036;-68
2023/09/03 07:35:54;;;;;;;10.57;7.47;;;15.10;94.80;;;;;;5062432;28;20039;-67
2023/09/03 07:38:19;;;;;;;10.48;7.13;;;15.20;94.50;;;;;;5072288;28;20036;-67
2023/09/03 07:40:45;;;;;;;12.82;7.35;;;15.40;94.60;;;;;;5061642;28;20029;-67
2023/09/03 07:43:10;;;;;;;9.25;6.55;;;15.40;93.90;;;;;;5070944;28;20033;-70
2023/09/03 07:45:36;;;;;;;8.80;6.18;;;15.50;94.00;;;;;;5064961;28;20031;-68
2023/09/03 07:48:01;;;;;;;9.05;6.47;;;15.70;93.90;;;;;;5066264;28;20111;-68
2023/09/03 07:50:30;;;;;;;13.15;6.50;;;15.70;93.60;;;;;;5062240;28;20378;-69
2023/09/03 07:52:57;;;;;;;8.77;5.80;;;15.80;93.00;;;;;;5065924;28;20100;-68
2023/09/03 07:55:23;;;;;;;9.63;5.78;;;16.00;92.80;;;;;;5068999;28;20454;-68
2023/09/03 07:57:48;;;;;;;8.43;5.93;;;16.20;92.00;;;;;;5056674;28;20024;-68
2023/09/03 08:00:14;;;;;;;7.43;4.95;;;16.40;92.00;;;;;;5062131;28;20477;-68
2023/09/03 08:02:39;;;;;;;8.60;5.43;;;16.60;91.20;;;;;;5059134;28;20025;-68
2023/09/03 08:05:05;;;;;;;11.50;5.15;;;16.70;90.50;;;;;;5061705;28;20063;-67
2023/09/03 08:07:31;;;;;;;9.50;4.43;;;16.70;90.80;;;;;;5066785;28;20028;-70
2023/09/03 08:09:56;;;;;;;7.18;3.40;;;16.90;90.30;;;;;;5068276;28;20266;-70
2023/09/03 08:12:22;;;;;;;6.03;3.20;;;17.00;89.90;;;;;;5067207;28;20123;-70
2023/09/03 08:14:48;;;;;;;6.75;3.00;;;17.10;87.70;;;;;;5061694;28;20020;-70
2023/09/03 08:17:14;;;;;;;6.78;2.67;;;17.20;87.10;;;;;;5064685;28;20484;-70
2023/09/03 08:19:40;;;;;;;6.65;3.35;;;17.40;87.40;;;;;;5059650;28;20032;-71
2023/09/03 08:22:05;;;;;;;7.30;3.30;;;17.40;86.80;;;;;;5067282;28;20024;-69
2023/09/03 08:24:31;;;;;;;8.93;4.07;;;17.60;86.80;;;;;;5062327;28;20040;-70
2023/09/03 08:26:58;;;;;;;6.95;3.17;;;17.70;87.10;;;;;;5067469;28;20107;-70
2023/09/03 08:29:24;;;;;;;8.07;3.10;;;17.80;86.20;;;;;;5062032;28;20390;-69
2023/09/03 08:31:49;;;;;;;6.72;3.28;;;18.00;86.20;;;;;;5061277;28;20027;-72
2023/09/03 08:34:15;;;;;;;6.00;2.70;;;18.00;85.20;;;;;;5059727;28;20025;-70
2023/09/03 08:36:40;;;;;;;5.63;2.70;;;18.20;85.40;;;;;;5065934;28;20473;-69
2023/09/03 08:39:06;;;;;;;3.95;2.45;;;18.20;84.50;;;;;;5064945;28;20121;-73
2023/09/03 08:41:32;;;;;;;3.15;1.95;;;18.50;85.40;;;;;;5064343;28;20402;-70
2023/09/03 08:44:03;;;;;;;5.22;1.80;;;18.60;82.60;;;;;;5059218;28;20033;-70
2023/09/03 08:46:31;;;;;;;3.55;1.90;;;18.60;82.40;;;;;;5060290;28;20359;-70
2023/09/03 08:48:59;;;;;;;5.55;1.63;;;19.00;81.20;;;;;;5065328;28;20032;-72
2023/09/03 08:51:26;;;;;;;4.53;1.80;;;18.90;81.70;;;;;;5068110;28;20031;-70
2023/09/03 08:53:54;;;;;;;5.25;1.90;;;18.60;81.50;;;;;;5067144;28;20028;-68
2023/09/03 08:56:20;;;;;;;4.65;1.70;;;18.50;80.80;;;;;;5067941;28;20025;-67
2023/09/03 08:58:45;;;;;;;3.53;1.65;;;18.50;81.00;;;;;;5073442;28;20043;-68
2023/09/03 09:01:13;;;;;;;4.43;2.33;;;18.60;81.30;;;;;;5065393;28;20035;-68
2023/09/03 09:03:39;;;;;;;6.55;2.03;;;18.50;81.70;;;;;;5069656;28;20040;-67
2023/09/03 09:06:07;;;;;;;4.07;2.17;;;19.00;81.50;;;;;;5062597;28;20028;-68
2023/09/03 09:08:33;;;;;;;3.38;1.70;;;19.30;80.20;;;;;;5068162;28;20082;-68
2023/09/03 09:11:03;;;;;;;5.43;2.05;;;19.40;79.30;;;;;;5073512;28;20033;-68
2023/09/03 09:13:34;;;;;;;4.80;2.27;;;18.80;80.20;;;;;;5067781;28;20028;-68
2023/09/03 09:16:00;;;;;;;5.13;2.08;;;18.70;80.10;;;;;;5068127;28;20067;-69
2023/09/03 09:18:25;;;;;;;5.47;1.98;;;18.80;80.50;;;;;;5060184;28;20115;-67
2023/09/03 09:20:57;;;;;;;4.90;2.15;;;18.90;79.80;;;;;;5064137;28;20116;-67
2023/09/03 09:23:23;;;;;;;4.18;1.77;;;19.30;79.40;;;;;;5048576;28;20044;-69
2023/09/03 09:25:48;;;;;;;8.20;2.15;;;19.30;79.20;;;;;;5068626;28;20052;-67
2023/09/03 09:28:14;;;;;;;7.00;2.25;;;19.20;78.50;;;;;;5062840;28;20032;-67
2023/09/03 09:30:58;;;;;;;5.45;1.95;;;19.20;78.30;;;;;;5062205;28;20024;-67
2023/09/03 09:33:24;;;;;;;4.13;1.88;;;19.50;78.20;;;;;;5060453;28;20029;-67
2023/09/03 09:35:50;;;;;;;6.15;2.10;;;19.60;77.40;;;;;;5061840;28;20033;-68
2023/09/03 09:38:16;;;;;;;4.90;1.90;;;19.60;77.10;;;;;;5071456;28;20032;-68
2023/09/03 09:40:42;;;;;;;3.65;1.50;;;19.60;76.30;;;;;;5059872;28;20024;-68
2023/09/03 09:43:09;;;;;;;3.72;1.65;;;19.70;74.90;;;;;;5071690;28;20098;-68
2023/09/03 09:45:45;;;;;;;3.78;1.70;;;19.80;75.20;;;;;;5061025;28;20397;-67
2023/09/03 09:48:12;;;;;;;4.45;1.77;;;19.50;74.30;;;;;;5066063;28;20082;-68
2023/09/03 09:50:39;;;;;;;4.95;1.67;;;19.40;75.20;;;;;;5065693;28;20025;-68
2023/09/03 09:53:18;;;;;;;4.55;1.83;;;19.50;74.80;;;;;;5071010;28;20021;-68
2023/09/03 09:55:44;;;;;;;3.03;1.50;;;19.70;75.00;;;;;;5064458;28;20390;-68
2023/09/03 09:58:12;;;;;;;6.07;1.83;;;20.10;74.50;;;;;;5068564;28;20029;-68
2023/09/03 10:00:40;;;;;;;4.70;1.50;;;20.30;73.30;;;;;;5064035;28;20031;-68
2023/09/03 10:03:07;;;;;;;3.28;1.73;;;20.50;74.00;;;;;;5056695;28;20025;-69
2023/09/03 10:05:34;;;;;;;3.83;1.65;;;20.50;73.20;;;;;;5062437;28;20021;-67
2023/09/03 10:08:02;;;;;;;3.88;1.70;;;20.30;73.80;;;;;;5064622;28;20029;-70
2023/09/03 10:10:27;;;;;;;3.45;1.60;;;20.20;71.90;;;;;;5068547;28;20119;-69
2023/09/03 10:12:53;;;;;;;3.42;1.63;;;20.00;72.80;;;;;;5066639;28;20103;-68
2023/09/03 10:15:21;;;;;;;4.60;1.95;;;20.20;72.30;;;;;;5065230;28;20064;-69
2023/09/03 10:17:51;;;;;;;4.38;1.45;;;20.20;72.90;;;;;;5058455;28;20039;-68
2023/09/03 10:20:19;;;;;;;3.20;1.40;;;20.10;73.10;;;;;;5070921;28;20028;-68
2023/09/03 10:22:49;;;;;;;3.28;1.40;;;20.30;72.90;;;;;;5053387;28;20045;-68
2023/09/03 10:25:20;;;;;;;3.40;1.70;;;20.40;72.30;;;;;;5063133;28;20045;-66
2023/09/03 10:27:50;;;;;;;3.25;1.17;;;20.30;70.50;;;;;;5063919;28;20037;-67
2023/09/03 10:30:21;;;;;;;3.67;1.38;;;20.20;70.40;;;;;;5064198;28;20045;-68
2023/09/03 10:32:47;;;;;;;3.83;1.17;;;20.00;71.10;;;;;;5061256;28;20108;-68
2023/09/03 10:35:13;;;;;;;4.07;1.48;;;20.30;71.10;;;;;;5060332;28;20563;-67
2023/09/03 10:37:40;;;;;;;4.15;1.35;;;20.70;70.80;;;;;;5064768;28;20107;-67
2023/09/03 10:40:20;;;;;;;2.85;1.10;;;21.10;70.00;;;;;;5066697;28;20407;-67
2023/09/03 10:42:46;;;;;;;4.93;1.60;;;21.20;69.20;;;;;;5066058;28;20031;-66
2023/09/03 10:45:12;;;;;;;2.45;1.13;;;20.90;70.20;;;;;;5063753;28;20047;-67
2023/09/03 10:47:56;;;;;;;2.88;1.33;;;21.20;69.30;;;;;;5063300;28;20029;-68
2023/09/03 10:50:46;;;;;;;4.00;1.10;;;20.60;69.20;;;;;;5064700;28;20029;-67
2023/09/03 10:53:37;;;;;;;2.45;1.50;;;20.70;69.60;;;;;;5064466;28;20123;-67
2023/09/03 10:56:07;;;;;;;2.65;1.30;;;20.50;67.10;;;;;;5062448;28;20024;-67
2023/09/03 10:58:32;;;;;;;2.58;1.15;;;21.00;68.10;;;;;;5070023;28;20435;-68
2023/09/03 11:01:36;;;;;;;2.45;1.25;;;20.90;67.40;;;;;;5065466;28;20036;-68
2023/09/03 11:04:03;;;;;;;2.83;1.38;;;20.50;69.00;;;;;;5025646;28;20537;-67
2023/09/03 11:06:33;;;;;;;2.42;1.50;;;20.60;69.60;;;;;;5023053;28;20494;-67
2023/09/03 11:08:59;;;;;;;2.73;1.53;;;20.80;68.90;;;;;;5048762;28;20440;-69
2023/09/03 11:11:27;;;;;;;2.63;1.60;;;20.90;69.80;;;;;;5060769;28;20118;-68
2023/09/03 11:13:53;;;;;;;7.57;1.73;;;21.20;68.00;;;;;;5063159;28;20021;-67
2023/09/03 11:16:29;;;;;;;3.15;1.20;;;20.80;69.10;;;;;;5062142;28;20036;-69
2023/09/03 11:18:55;;;;;;;3.58;1.23;;;20.90;68.70;;;;;;5061205;28;20036;-66
2023/09/03 11:21:25;;;;;;;2.65;1.30;;;20.70;68.30;;;;;;5068971;28;20079;-67
2023/09/03 11:24:14;;;;;;;2.70;1.23;;;21.10;66.20;;;;;;5046759;28;20106;-67
2023/09/03 11:26:40;;;;;;;4.22;1.13;;;21.50;63.90;;;;;;5063613;28;20059;-67
2023/09/03 11:29:19;;;;;;;1.88;1.20;;;22.00;62.20;;;;;;5057126;28;20045;-68
2023/09/03 11:31:48;;;;;;;2.33;1.17;;;22.30;61.90;;;;;;5062193;28;20107;-67
2023/09/03 11:34:17;;;;;;;2.60;1.05;;;22.40;60.50;;;;;;5060302;28;20020;-69
2023/09/03 11:36:43;;;;;;;3.35;0.90;;;22.40;59.40;;;;;;5064159;28;20473;-68
2023/09/03 11:39:14;;;;;;;4.93;1.48;;;22.60;59.50;;;;;;5054935;28;20461;-68
2023/09/03 11:41:42;;;;;;;2.85;1.45;;;22.50;58.50;;;;;;5057551;28;20373;-68
2023/09/03 11:44:13;;;;;;;3.55;1.35;;;22.40;59.70;;;;;;5056553;28;20035;-67
2023/09/03 11:46:38;;;;;;;1.52;1.05;;;22.30;60.50;;;;;;5060785;28;20024;-67
2023/09/03 11:49:05;;;;;;;1.40;1.02;;;22.20;60.40;;;;;;5061661;28;20036;-67
2023/09/03 11:51:31;;;;;;;4.65;1.15;;;22.30;62.00;;;;;;5061190;28;20056;-66
2023/09/03 11:53:57;;;;;;;1.92;1.42;;;22.20;61.80;;;;;;5065723;28;20048;-66
2023/09/03 11:56:25;;;;;;;2.70;1.60;;;22.20;62.20;;;;;;5063350;28;20079;-66
2023/09/03 11:59:04;;;;;;;2.67;1.30;;;22.20;62.10;;;;;;5062142;28;20087;-66
2023/09/03 12:01:30;;;;;;;2.75;1.10;;;22.30;61.30;;;;;;5062479;28;20036;-66
2023/09/03 12:03:55;;;;;;;2.00;1.00;;;22.50;58.40;;;;;;5063927;28;20033;-67
2023/09/03 12:06:21;;;;;;;4.60;1.30;;;23.10;59.60;;;;;;5062755;28;20111;-67
2023/09/03 12:08:47;;;;;;;1.90;0.93;;;23.00;56.80;;;;;;5065062;28;20115;-68
2023/09/03 12:11:12;;;;;;;2.90;1.20;;;23.30;60.00;;;;;;5065202;28;20029;-72
2023/09/03 12:13:41;;;;;;;1.83;1.17;;;23.40;57.60;;;;;;5061010;28;20035;-68
2023/09/03 12:16:09;;;;;;;3.78;1.30;;;22.60;58.40;;;;;;5058460;28;20033;-68
2023/09/03 12:18:36;;;;;;;3.13;1.10;;;23.00;59.10;;;;;;5057325;28;20087;-67
2023/09/03 12:21:03;;;;;;;3.72;1.08;;;23.00;59.60;;;;;;5064989;28;20544;-67
2023/09/03 12:23:29;;;;;;;4.60;1.20;;;22.60;59.60;;;;;;5055818;28;20048;-66
2023/09/03 12:25:54;;;;;;;2.60;1.23;;;22.60;60.40;;;;;;5061458;28;20062;-68
2023/09/03 12:28:36;;;;;;;2.78;1.23;;;22.10;61.10;;;;;;5071323;28;20447;-66
2023/09/03 12:31:04;;;;;;;3.03;1.20;;;21.80;63.20;;;;;;5068097;28;20094;-66
2023/09/03 12:33:32;;;;;;;2.38;1.10;;;21.90;63.80;;;;;;5067409;28;20029;-66
2023/09/03 12:36:12;;;;;;;1.90;1.40;;;22.00;64.40;;;;;;5069216;28;20115;-66
2023/09/03 12:38:52;;;;;;;4.10;1.42;;;22.00;64.90;;;;;;5063794;28;20479;-67